Time;durP1;ratioP1;P1;durP2;ratioP2;P2;SDS_P1;SDS_P2;PMS_P1;PMS_P2;Temp;Humidity;BMP_temperature;BMP_pressure;BME280_temperature;BME280_humidity;BME280_pressure;Samples;Min_cycle;Max_cycle;Signal;HPM_P1;HPM_P2
2023/04/01 00:00:23;;;;;;;12.38;7.65;;;;;;;;;;5011098;28;20042;-84
2023/04/01 00:02:49;;;;;;;10.20;7.40;;;;;;;;;;5009533;28;20071;-84
2023/04/01 00:05:16;;;;;;;15.95;8.32;;;;;;;;;;5009711;28;20469;-84
2023/04/01 00:07:42;;;;;;;9.02;7.75;;;;;;;;;;5010118;28;20140;-86
2023/04/01 00:10:10;;;;;;;11.88;7.55;;;;;;;;;;5009577;28;20101;-84
2023/04/01 00:12:38;;;;;;;11.82;6.82;;;;;;;;;;5010047;28;20077;-84
2023/04/01 00:15:05;;;;;;;9.85;7.45;;;;;;;;;;5009154;28;20079;-84
2023/04/01 00:17:31;;;;;;;11.23;7.47;;;;;;;;;;5010499;28;20079;-84
2023/04/01 00:19:58;;;;;;;11.75;6.95;;;;;;;;;;5006880;28;20047;-84
2023/04/01 00:22:24;;;;;;;9.65;6.85;;;;;;;;;;5010192;28;20046;-86
2023/04/01 00:24:51;;;;;;;11.07;7.28;;;;;;;;;;5013350;28;20102;-84
2023/04/01 00:27:17;;;;;;;12.35;7.32;;;;;;;;;;5009299;28;20038;-84
2023/04/01 00:29:44;;;;;;;9.68;6.72;;;;;;;;;;5007423;28;20047;-84
2023/04/01 00:32:10;;;;;;;10.75;7.05;;;;;;;;;;5008222;28;20054;-84
2023/04/01 00:34:37;;;;;;;10.43;6.82;;;;;;;;;;5006938;28;20451;-83
2023/04/01 00:37:03;;;;;;;10.50;6.97;;;;;;;;;;5009369;28;20043;-84
2023/04/01 00:39:31;;;;;;;10.90;6.55;;;;;;;;;;5010225;28;20046;-84
2023/04/01 00:41:57;;;;;;;10.27;6.90;;;;;;;;;;5007909;28;20038;-83
2023/04/01 00:44:28;;;;;;;10.30;7.07;;;;;;;;;;5004893;28;20046;-83
2023/04/01 00:46:54;;;;;;;9.63;6.80;;;;;;;;;;5006230;28;20046;-84
2023/04/01 00:49:23;;;;;;;10.73;7.47;;;;;;;;;;5007331;28;20065;-83
2023/04/01 00:51:50;;;;;;;11.55;7.60;;;;;;;;;;5003404;28;20050;-84
2023/04/01 00:54:19;;;;;;;11.77;7.32;;;;;;;;;;5002238;28;20098;-83
2023/04/01 00:56:55;;;;;;;12.05;7.57;;;;;;;;;;5000858;28;20058;-83
2023/04/01 00:59:34;;;;;;;9.80;7.85;;;;;;;;;;5002763;28;20053;-82
2023/04/01 01:02:01;;;;;;;12.00;7.38;;;;;;;;;;5005346;28;20078;-83
2023/04/01 01:04:29;;;;;;;11.38;7.55;;;;;;;;;;5005872;28;20034;-84
2023/04/01 01:07:18;;;;;;;13.10;7.57;;;;;;;;;;5008375;28;20058;-83
2023/04/01 01:09:56;;;;;;;15.23;7.78;;;;;;;;;;5007666;28;20043;-83
2023/04/01 01:12:31;;;;;;;10.68;7.63;;;;;;;;;;5007669;28;20034;-84
2023/04/01 01:15:05;;;;;;;12.50;7.93;;;;;;;;;;5008853;28;20042;-83
2023/04/01 01:17:47;;;;;;;13.40;7.78;;;;;;;;;;4990543;28;20053;-83
2023/04/01 01:20:13;;;;;;;10.60;7.60;;;;;;;;;;4992667;28;20046;-84
2023/04/01 01:22:52;;;;;;;10.40;7.65;;;;;;;;;;5008617;28;20062;-84
2023/04/01 01:25:29;;;;;;;11.32;7.60;;;;;;;;;;5008775;28;20050;-84
2023/04/01 01:27:59;;;;;;;14.40;8.65;;;;;;;;;;5007866;28;20050;-84
2023/04/01 01:30:44;;;;;;;11.55;7.95;;;;;;;;;;5009910;28;20073;-83
2023/04/01 01:33:26;;;;;;;12.15;7.70;;;;;;;;;;5009967;28;20125;-83
2023/04/01 01:35:54;;;;;;;11.95;7.07;;;;;;;;;;5009061;28;20125;-83
2023/04/01 01:38:26;;;;;;;10.90;7.43;;;;;;;;;;5009560;28;20133;-84
2023/04/01 01:40:54;;;;;;;10.07;6.95;;;;;;;;;;5009623;28;20073;-84
2023/04/01 01:43:26;;;;;;;9.05;6.40;;;;;;;;;;5008474;28;20043;-84
2023/04/01 01:45:55;;;;;;;9.27;6.13;;;;;;;;;;5006554;28;20046;-84
2023/04/01 01:48:21;;;;;;;9.05;6.53;;;;;;;;;;5010180;28;20049;-85
2023/04/01 01:50:49;;;;;;;9.65;5.97;;;;;;;;;;5009824;28;20093;-85
2023/04/01 01:53:15;;;;;;;9.73;5.75;;;;;;;;;;5008613;28;20039;-83
2023/04/01 01:55:46;;;;;;;9.43;5.20;;;;;;;;;;5008461;28;20058;-84
2023/04/01 01:58:12;;;;;;;10.45;4.72;;;;;;;;;;5009038;28;20111;-84
2023/04/01 02:00:38;;;;;;;10.30;4.28;;;;;;;;;;5002920;28;20043;-83
2023/04/01 02:03:05;;;;;;;9.30;4.38;;;;;;;;;;5004414;28;20042;-83
2023/04/01 02:05:32;;;;;;;8.98;4.60;;;;;;;;;;5006238;28;20050;-83
2023/04/01 02:08:02;;;;;;;8.02;4.85;;;;;;;;;;5006529;28;20069;-82
2023/04/01 02:10:29;;;;;;;9.25;5.35;;;;;;;;;;5008071;28;20416;-83
2023/04/01 02:12:58;;;;;;;8.13;4.90;;;;;;;;;;5014395;28;20046;-83
2023/04/01 02:15:26;;;;;;;9.68;5.63;;;;;;;;;;5014729;28;20030;-83
2023/04/01 02:17:52;;;;;;;9.80;5.28;;;;;;;;;;5006348;28;20045;-84
2023/04/01 02:20:20;;;;;;;10.02;6.05;;;;;;;;;;5005862;28;20071;-84
2023/04/01 02:22:51;;;;;;;11.80;6.32;;;;;;;;;;5004901;28;20125;-84
2023/04/01 02:25:36;;;;;;;10.48;6.60;;;;;;;;;;5007693;28;20097;-84
2023/04/01 02:28:04;;;;;;;10.23;6.85;;;;;;;;;;5008459;28;20054;-83
2023/04/01 02:30:32;;;;;;;10.52;6.97;;;;;;;;;;5008111;28;20034;-84
2023/04/01 02:32:59;;;;;;;11.50;7.95;;;;;;;;;;5008646;28;20046;-84
2023/04/01 02:35:26;;;;;;;12.32;8.55;;;;;;;;;;5009347;28;20045;-85
2023/04/01 02:37:53;;;;;;;10.68;8.05;;;;;;;;;;5009014;28;20042;-85
2023/04/01 02:40:19;;;;;;;12.77;8.63;;;;;;;;;;5009841;28;20074;-84
2023/04/01 02:42:45;;;;;;;13.88;8.85;;;;;;;;;;5007697;28;20472;-84
2023/04/01 02:45:12;;;;;;;12.65;8.38;;;;;;;;;;5008677;28;20053;-85
2023/04/01 02:47:38;;;;;;;12.05;8.48;;;;;;;;;;5009052;28;20042;-83
2023/04/01 02:50:05;;;;;;;13.50;9.73;;;;;;;;;;5008988;28;20045;-84
2023/04/01 02:52:31;;;;;;;13.50;9.63;;;;;;;;;;4989822;28;20053;-84
2023/04/01 02:54:58;;;;;;;16.95;10.00;;;;;;;;;;5009970;28;20034;-83
2023/04/01 02:57:25;;;;;;;14.13;9.70;;;;;;;;;;5005937;28;20042;-83
2023/04/01 02:59:51;;;;;;;13.38;10.40;;;;;;;;;;5008342;28;20038;-84
2023/04/01 03:02:17;;;;;;;13.68;10.18;;;;;;;;;;5002935;28;20082;-83
2023/04/01 03:04:44;;;;;;;14.00;10.07;;;;;;;;;;5006917;28;20042;-83
2023/04/01 03:07:10;;;;;;;14.93;10.52;;;;;;;;;;5007039;28;20412;-83
2023/04/01 03:09:37;;;;;;;14.07;9.52;;;;;;;;;;5005464;28;20129;-83
2023/04/01 03:12:03;;;;;;;14.85;10.07;;;;;;;;;;5003586;28;20046;-81
2023/04/01 03:14:29;;;;;;;12.60;9.88;;;;;;;;;;4999787;28;20050;-83
2023/04/01 03:16:55;;;;;;;15.82;10.52;;;;;;;;;;4985855;28;20058;-83
2023/04/01 03:19:21;;;;;;;13.43;10.35;;;;;;;;;;4999846;28;20039;-82
2023/04/01 03:21:48;;;;;;;14.23;10.50;;;;;;;;;;4998890;28;20140;-82
2023/04/01 03:24:14;;;;;;;13.68;11.07;;;;;;;;;;5002529;28;20074;-82
2023/04/01 03:26:40;;;;;;;13.43;11.10;;;;;;;;;;5001508;28;20085;-83
2023/04/01 03:29:06;;;;;;;16.45;11.13;;;;;;;;;;5001269;28;20046;-80
2023/04/01 03:31:32;;;;;;;16.00;10.77;;;;;;;;;;5003328;28;20046;-81
2023/04/01 03:33:58;;;;;;;14.75;11.38;;;;;;;;;;4986871;28;20113;-83
2023/04/01 03:36:24;;;;;;;14.77;10.80;;;;;;;;;;4984701;28;20061;-83
2023/04/01 03:38:50;;;;;;;15.27;11.07;;;;;;;;;;4985141;28;20129;-81
2023/04/01 03:41:17;;;;;;;16.38;11.32;;;;;;;;;;4992309;28;20038;-82
2023/04/01 03:43:44;;;;;;;16.80;11.52;;;;;;;;;;4995713;28;20046;-82
2023/04/01 03:46:10;;;;;;;17.35;12.65;;;;;;;;;;5003329;28;20047;-83
2023/04/01 03:48:36;;;;;;;14.75;11.70;;;;;;;;;;5002644;28;20050;-82
2023/04/01 03:51:02;;;;;;;18.40;12.50;;;;;;;;;;5002551;28;20046;-82
2023/04/01 03:53:28;;;;;;;16.20;11.43;;;;;;;;;;5002166;28;20046;-82
2023/04/01 03:55:55;;;;;;;18.00;12.60;;;;;;;;;;4986381;28;20045;-83
2023/04/01 03:58:21;;;;;;;15.60;12.05;;;;;;;;;;4985646;28;20123;-83
2023/04/01 04:00:47;;;;;;;16.02;12.30;;;;;;;;;;4996528;28;20046;-83
2023/04/01 04:03:13;;;;;;;15.80;13.10;;;;;;;;;;5005753;28;20043;-83
2023/04/01 04:05:46;;;;;;;16.50;12.88;;;;;;;;;;5008303;28;20077;-84
2023/04/01 04:08:13;;;;;;;17.85;13.85;;;;;;;;;;5008774;28;20065;-84
2023/04/01 04:10:39;;;;;;;19.52;14.48;;;;;;;;;;5009672;28;20408;-83
2023/04/01 04:13:05;;;;;;;21.25;15.10;;;;;;;;;;5008582;28;20038;-82
2023/04/01 04:15:31;;;;;;;20.67;15.57;;;;;;;;;;5009349;28;20444;-84
2023/04/01 04:17:57;;;;;;;18.38;15.20;;;;;;;;;;5007473;28;20049;-83
2023/04/01 04:20:24;;;;;;;21.23;16.23;;;;;;;;;;5008024;28;20046;-84
2023/04/01 04:22:50;;;;;;;19.25;15.93;;;;;;;;;;5008036;28;20042;-83
2023/04/01 04:25:16;;;;;;;20.58;15.48;;;;;;;;;;5006999;28;20042;-83
2023/04/01 04:27:42;;;;;;;18.95;14.20;;;;;;;;;;5007028;28;20046;-83
2023/04/01 04:30:09;;;;;;;18.08;14.73;;;;;;;;;;5008096;28;20050;-84
2023/04/01 04:32:35;;;;;;;19.73;15.02;;;;;;;;;;5007833;28;20058;-83
2023/04/01 04:35:01;;;;;;;18.17;14.63;;;;;;;;;;5001856;28;20046;-83
2023/04/01 04:37:27;;;;;;;21.75;16.58;;;;;;;;;;5007246;28;20051;-83
2023/04/01 04:39:53;;;;;;;24.60;15.73;;;;;;;;;;5007675;28;20548;-82
2023/04/01 04:42:19;;;;;;;21.02;16.83;;;;;;;;;;5008627;28;20053;-81
2023/04/01 04:44:45;;;;;;;21.55;16.92;;;;;;;;;;5031531;28;20096;-83
2023/04/01 04:47:12;;;;;;;21.10;16.67;;;;;;;;;;4998040;28;20050;-83
2023/04/01 04:49:38;;;;;;;22.02;16.65;;;;;;;;;;5014005;28;20050;-82
2023/04/01 04:52:04;;;;;;;20.55;16.33;;;;;;;;;;5006428;28;20114;-84
2023/04/01 04:54:30;;;;;;;21.20;16.30;;;;;;;;;;5007088;28;20046;-82
2023/04/01 04:56:56;;;;;;;22.30;15.55;;;;;;;;;;5004562;28;20058;-82
2023/04/01 04:59:22;;;;;;;18.75;14.48;;;;;;;;;;5005860;28;20050;-82
2023/04/01 05:01:48;;;;;;;16.17;13.18;;;;;;;;;;5006960;28;20049;-83
2023/04/01 05:04:14;;;;;;;17.25;12.90;;;;;;;;;;5001379;28;20039;-83
2023/04/01 05:06:40;;;;;;;16.00;13.00;;;;;;;;;;4992687;28;20057;-81
2023/04/01 05:09:06;;;;;;;21.27;12.43;;;;;;;;;;5004368;28;20054;-81
2023/04/01 05:11:32;;;;;;;14.68;11.05;;;;;;;;;;5005028;28;20047;-81
2023/04/01 05:13:58;;;;;;;13.95;11.05;;;;;;;;;;5008402;28;20047;-81
2023/04/01 05:16:24;;;;;;;12.23;9.45;;;;;;;;;;5003709;28;20053;-81
2023/04/01 05:18:51;;;;;;;12.00;9.40;;;;;;;;;;5006448;28;20045;-81
2023/04/01 05:21:17;;;;;;;12.25;9.98;;;;;;;;;;5005130;28;20050;-82
2023/04/01 05:23:43;;;;;;;13.77;10.00;;;;;;;;;;5005437;28;20046;-81
2023/04/01 05:26:14;;;;;;;10.48;8.15;;;;;;;;;;5005168;28;20177;-81
2023/04/01 05:28:40;;;;;;;11.65;8.23;;;;;;;;;;5001374;28;20053;-80
2023/04/01 05:31:06;;;;;;;12.32;9.18;;;;;;;;;;5002304;28;20046;-80
2023/04/01 05:33:33;;;;;;;14.10;9.18;;;;;;;;;;5003046;28;20046;-81
2023/04/01 05:36:12;;;;;;;13.82;9.77;;;;;;;;;;5002733;28;20042;-82
2023/04/01 05:38:38;;;;;;;14.00;10.77;;;;;;;;;;5003055;28;20117;-82
2023/04/01 05:41:05;;;;;;;15.73;10.77;;;;;;;;;;4998765;28;20043;-82
2023/04/01 05:43:31;;;;;;;13.75;10.40;;;;;;;;;;4996970;28;20065;-82
2023/04/01 05:45:57;;;;;;;13.50;9.93;;;;;;;;;;5001073;28;20077;-82
2023/04/01 05:48:23;;;;;;;15.40;10.52;;;;;;;;;;5004066;28;20042;-82
2023/04/01 05:50:49;;;;;;;14.38;9.85;;;;;;;;;;5004147;28;20053;-81
2023/04/01 05:53:16;;;;;;;15.18;9.88;;;;;;;;;;5005433;28;20105;-81
2023/04/01 05:55:42;;;;;;;15.00;10.02;;;;;;;;;;5006398;28;20046;-81
2023/04/01 05:58:08;;;;;;;14.25;10.85;;;;;;;;;;5003564;28;20058;-82
2023/04/01 06:00:34;;;;;;;15.70;10.93;;;;;;;;;;4992817;28;20050;-80
2023/04/01 06:03:00;;;;;;;19.35;12.27;;;;;;;;;;4995587;28;20129;-81
2023/04/01 06:05:28;;;;;;;17.63;12.90;;;;;;;;;;5004440;28;20046;-82
2023/04/01 06:07:58;;;;;;;16.55;12.05;;;;;;;;;;5005049;28;20086;-81
2023/04/01 06:10:29;;;;;;;20.63;12.57;;;;;;;;;;5024286;28;20049;-81
2023/04/01 06:13:07;;;;;;;17.98;12.38;;;;;;;;;;5024509;28;20072;-82
2023/04/01 06:15:39;;;;;;;16.92;12.07;;;;;;;;;;5021267;28;20049;-82
2023/04/01 06:18:24;;;;;;;16.10;11.65;;;;;;;;;;5005508;28;20057;-83
2023/04/01 06:20:59;;;;;;;15.45;11.35;;;;;;;;;;5011901;28;20145;-82
2023/04/01 06:23:40;;;;;;;16.30;11.70;;;;;;;;;;5005733;28;20458;-82
2023/04/01 06:26:06;;;;;;;;;;;;;;;;;;5024665;28;20058;-82
2023/04/01 06:28:42;;;;;;;13.90;9.95;;;;;;;;;;5023926;28;19944;-82
2023/04/01 06:31:26;;;;;;;12.98;9.25;;;;;;;;;;5025486;28;20141;-81
2023/04/01 06:34:06;;;;;;;11.45;8.23;;;;;;;;;;5003283;28;20046;-82
2023/04/01 06:36:32;;;;;;;11.82;7.90;;;;;;;;;;5004474;28;20427;-83
2023/04/01 06:39:19;;;;;;;15.07;11.25;;;;;;;;;;5005845;28;20045;-82
2023/04/01 06:42:04;;;;;;;18.35;12.90;;;;;;;;;;5001494;28;20053;-82
2023/04/01 06:44:50;;;;;;;28.17;17.02;;;;;;;;;;5003114;28;20053;-83
2023/04/01 06:47:37;;;;;;;26.13;17.05;;;;;;;;;;5004877;28;20085;-83
2023/04/01 06:50:20;;;;;;;17.38;13.07;;;;;;;;;;5005040;28;20038;-83
2023/04/01 06:52:55;;;;;;;16.85;14.05;;;;;;;;;;5009985;28;20046;-83
2023/04/01 06:55:21;;;;;;;16.65;13.35;;;;;;;;;;5007439;28;20046;-83
2023/04/01 06:57:50;;;;;;;16.55;14.20;;;;;;;;;;5008551;28;20106;-83
2023/04/01 07:00:28;;;;;;;16.95;14.05;;;;;;;;;;5003031;28;20066;-83
2023/04/01 07:03:17;;;;;;;16.25;14.00;;;;;;;;;;5001492;28;20050;-83
2023/04/01 07:05:44;;;;;;;15.95;13.48;;;;;;;;;;5004677;28;20089;-83
2023/04/01 07:08:12;;;;;;;15.73;13.98;;;;;;;;;;5007364;28;20093;-84
2023/04/01 07:10:47;;;;;;;15.20;12.77;;;;;;;;;;4974677;28;20047;-83
2023/04/01 07:13:22;;;;;;;17.25;14.85;;;;;;;;;;5000512;28;20046;-83
2023/04/01 07:16:07;;;;;;;16.50;13.85;;;;;;;;;;5004272;28;20046;-83
2023/04/01 07:18:42;;;;;;;13.60;11.60;;;;;;;;;;4988438;28;20084;-83
2023/04/01 07:21:19;;;;;;;13.07;11.10;;;;;;;;;;4976564;28;20023;-81
2023/04/01 07:23:46;;;;;;;16.67;14.05;;;;;;;;;;4998857;28;20031;-82
2023/04/01 07:26:20;;;;;;;16.80;13.73;;;;;;;;;;4990321;28;20054;-83
2023/04/01 07:28:46;;;;;;;21.42;18.00;;;;;;;;;;4998885;28;20089;-83
2023/04/01 07:31:12;;;;;;;17.17;15.20;;;;;;;;;;5005862;28;20046;-84
2023/04/01 07:33:59;;;;;;;19.75;17.42;;;;;;;;;;5006012;28;20469;-83
2023/04/01 07:36:30;;;;;;;15.80;13.52;;;;;;;;;;4989359;28;20129;-83
2023/04/01 07:38:59;;;;;;;14.00;11.40;;;;;;;;;;5005906;28;20046;-84
2023/04/01 07:41:32;;;;;;;12.45;10.68;;;;;;;;;;4991604;28;20141;-83
2023/04/01 07:44:01;;;;;;;13.13;11.10;;;;;;;;;;5001887;28;20100;-82
2023/04/01 07:46:46;;;;;;;11.80;9.73;;;;;;;;;;5001671;28;20050;-83
2023/04/01 07:49:16;;;;;;;11.65;8.25;;;;;;;;;;4996376;28;20086;-83
2023/04/01 07:51:50;;;;;;;10.10;8.00;;;;;;;;;;4982484;28;20077;-83
2023/04/01 07:54:23;;;;;;;10.40;8.02;;;;;;;;;;5008703;28;20097;-84
2023/04/01 07:56:55;;;;;;;8.90;7.25;;;;;;;;;;4986768;28;20054;-83
2023/04/01 07:59:21;;;;;;;8.27;6.07;;;;;;;;;;5008444;28;20050;-84
2023/04/01 08:02:01;;;;;;;9.70;7.00;;;;;;;;;;5005478;28;20129;-82
2023/04/01 08:04:42;;;;;;;9.45;7.30;;;;;;;;;;5008526;28;20045;-85
2023/04/01 08:07:34;;;;;;;8.52;6.20;;;;;;;;;;5002689;28;20055;-84
2023/04/01 08:10:01;;;;;;;9.80;5.10;;;;;;;;;;4998166;28;20130;-85
2023/04/01 08:12:40;;;;;;;8.60;4.43;;;;;;;;;;5004590;28;20048;-84
2023/04/01 08:15:27;;;;;;;6.65;3.63;;;;;;;;;;4995219;28;20493;-82
2023/04/01 08:18:08;;;;;;;5.40;3.42;;;;;;;;;;5000391;28;20581;-84
2023/04/01 08:20:34;;;;;;;;;;;;;;;;;;5007136;28;20477;-86
2023/04/01 08:23:08;;;;;;;7.55;4.03;;;;;;;;;;5009517;28;19922;-83
2023/04/01 08:25:34;;;;;;;8.07;5.80;;;;;;;;;;5007701;28;20065;-84
2023/04/01 08:28:04;;;;;;;9.00;6.18;;;;;;;;;;5007316;28;20058;-85
2023/04/01 08:30:40;;;;;;;8.98;6.72;;;;;;;;;;4990712;28;20046;-84
2023/04/01 08:33:11;;;;;;;8.98;6.97;;;;;;;;;;5005263;28;20496;-84
2023/04/01 08:35:39;;;;;;;9.25;7.50;;;;;;;;;;4999883;28;20050;-84
2023/04/01 08:38:12;;;;;;;10.75;8.50;;;;;;;;;;5004230;28;20046;-85
2023/04/01 08:40:47;;;;;;;14.02;9.77;;;;;;;;;;4990038;28;20053;-84
2023/04/01 08:43:28;;;;;;;11.90;10.35;;;;;;;;;;4986889;28;20073;-83
2023/04/01 08:46:01;;;;;;;12.17;10.30;;;;;;;;;;4998150;28;20050;-85
2023/04/01 08:48:46;;;;;;;14.15;11.60;;;;;;;;;;4998512;28;20080;-84
2023/04/01 08:51:21;;;;;;;14.63;11.10;;;;;;;;;;4993112;28;20105;-85
2023/04/01 08:54:01;;;;;;;12.35;10.57;;;;;;;;;;5001478;28;20046;-85
2023/04/01 08:56:30;;;;;;;10.48;8.02;;;;;;;;;;5000211;28;20069;-86
2023/04/01 08:59:06;;;;;;;10.35;9.13;;;;;;;;;;4987789;28;20077;-86
2023/04/01 09:01:47;;;;;;;16.80;13.60;;;;;;;;;;4988762;28;20129;-85
2023/04/01 09:04:26;;;;;;;23.95;17.63;;;;;;;;;;5002703;28;20046;-84
2023/04/01 09:07:01;;;;;;;11.57;10.27;;;;;;;;;;5001986;28;20093;-85
2023/04/01 09:09:38;;;;;;;10.60;8.77;;;;;;;;;;5004243;28;20046;-86
2023/04/01 09:12:04;;;;;;;11.85;9.95;;;;;;;;;;5002274;28;20045;-85
2023/04/01 09:14:49;;;;;;;9.43;8.43;;;;;;;;;;5004277;28;20046;-85
2023/04/01 09:17:24;;;;;;;9.63;8.20;;;;;;;;;;5003392;28;20045;-86
2023/04/01 09:19:57;;;;;;;9.57;8.57;;;;;;;;;;5002958;28;20190;-85
2023/04/01 09:22:42;;;;;;;9.02;7.90;;;;;;;;;;5004529;28;20603;-86
2023/04/01 09:25:17;;;;;;;8.68;7.75;;;;;;;;;;5003545;28;20042;-84
2023/04/01 09:28:06;;;;;;;8.63;7.55;;;;;;;;;;4997501;28;20050;-85
2023/04/01 09:30:34;;;;;;;9.40;7.75;;;;;;;;;;5001735;28;20184;-86
2023/04/01 09:33:20;;;;;;;10.35;8.55;;;;;;;;;;5004382;28;20046;-86
2023/04/01 09:35:55;;;;;;;9.35;8.15;;;;;;;;;;5002914;28;20432;-85
2023/04/01 09:38:27;;;;;;;14.30;10.27;;;;;;;;;;5003401;28;20046;-86
2023/04/01 09:41:12;;;;;;;11.15;8.95;;;;;;;;;;5000576;28;20046;-86
2023/04/01 09:43:56;;;;;;;10.32;8.32;;;;;;;;;;5002872;28;20081;-86
2023/04/01 09:46:25;;;;;;;12.13;9.85;;;;;;;;;;5004120;28;20038;-86
2023/04/01 09:49:01;;;;;;;10.23;8.57;;;;;;;;;;5003886;28;20492;-86
2023/04/01 09:51:33;;;;;;;8.45;7.55;;;;;;;;;;5005334;28;20046;-85
2023/04/01 09:54:35;;;;;;;10.05;8.55;;;;;;;;;;5003875;28;20057;-86
2023/04/01 09:57:03;;;;;;;8.80;7.68;;;;;;;;;;4990144;28;20043;-85
2023/04/01 09:59:48;;;;;;;10.52;7.85;;;;;;;;;;4992910;28;20050;-84
2023/04/01 10:02:32;;;;;;;8.63;7.40;;;;;;;;;;4991200;28;20074;-85
2023/04/01 10:05:11;;;;;;;8.07;7.28;;;;;;;;;;4981325;28;20054;-85
2023/04/01 10:07:56;;;;;;;7.75;6.30;;;;;;;;;;4987623;28;20068;-85
2023/04/01 10:10:34;;;;;;;8.85;7.07;;;;;;;;;;4986392;28;20078;-85
2023/04/01 10:13:15;;;;;;;8.70;7.80;;;;;;;;;;5000351;28;20054;-86
2023/04/01 10:16:14;;;;;;;11.52;9.60;;;;;;;;;;4984735;28;20097;-84
2023/04/01 10:18:51;;;;;;;10.60;9.07;;;;;;;;;;4906977;29;20049;-85
2023/04/01 10:21:23;;;;;;;12.40;10.82;;;;;;;;;;4905844;29;20055;-84
2023/04/01 10:23:58;;;;;;;13.93;11.88;;;;;;;;;;4898054;29;20052;-85
2023/04/01 10:26:39;;;;;;;13.70;12.30;;;;;;;;;;4890893;29;20080;-85
2023/04/01 10:29:24;;;;;;;11.68;10.48;;;;;;;;;;4900854;29;20049;-85
2023/04/01 10:32:08;;;;;;;11.52;9.60;;;;;;;;;;4906488;29;20049;-84
2023/04/01 10:34:53;;;;;;;11.02;9.38;;;;;;;;;;4926048;29;20059;-86
2023/04/01 10:37:28;;;;;;;11.88;9.63;;;;;;;;;;4908657;29;20079;-85
2023/04/01 10:40:18;;;;;;;11.48;9.57;;;;;;;;;;4908823;29;20048;-85
2023/04/01 10:42:56;;;;;;;7.85;5.70;;;;;;;;;;4921127;29;20052;-85
2023/04/01 10:45:33;;;;;;;7.07;4.82;;;;;;;;;;4907035;29;20052;-85
2023/04/01 10:48:05;;;;;;;6.60;4.78;;;;;;;;;;4890015;29;20064;-84
2023/04/01 10:50:49;;;;;;;7.57;5.97;;;;;;;;;;4891218;29;20122;-85
2023/04/01 10:53:33;;;;;;;7.97;6.60;;;;;;;;;;4907189;28;20059;-85
2023/04/01 10:55:59;;;;;;;9.95;7.88;;;;;;;;;;5000940;28;20046;-85
2023/04/01 10:58:44;;;;;;;7.30;5.90;;;;;;;;;;4995219;28;20046;-85
2023/04/01 11:01:28;;;;;;;6.35;4.63;;;;;;;;;;4996860;28;20369;-85
2023/04/01 11:04:06;;;;;;;6.80;4.65;;;;;;;;;;5003372;28;20076;-84
2023/04/01 11:06:32;;;;;;;5.65;4.05;;;;;;;;;;5004550;28;20758;-83
2023/04/01 11:09:01;;;;;;;6.13;4.25;;;;;;;;;;5006314;28;20042;-84
2023/04/01 11:11:46;;;;;;;5.60;3.60;;;;;;;;;;5006313;28;20054;-83
2023/04/01 11:14:28;;;;;;;5.43;3.60;;;;;;;;;;4986625;28;20054;-84
2023/04/01 11:17:00;;;;;;;6.55;4.78;;;;;;;;;;4999423;28;20043;-85
2023/04/01 11:19:41;;;;;;;7.47;4.00;;;;;;;;;;5007077;28;20069;-85
2023/04/01 11:22:09;;;;;;;;;;;;;;;;;;4990114;28;20057;-85
2023/04/01 11:24:38;;;;;;;5.38;3.00;;;;;;;;;;5006543;28;19925;-85
2023/04/01 11:27:13;;;;;;;4.97;3.03;;;;;;;;;;4988538;28;20058;-84
2023/04/01 11:29:58;;;;;;;4.80;2.78;;;;;;;;;;5008398;28;20497;-84
2023/04/01 11:32:25;;;;;;;5.10;3.28;;;;;;;;;;4989545;28;20089;-85
2023/04/01 11:35:14;;;;;;;5.32;3.53;;;;;;;;;;5007461;28;20051;-85
2023/04/01 11:37:55;;;;;;;5.45;3.30;;;;;;;;;;4991837;28;20051;-85
2023/04/01 11:40:28;;;;;;;4.70;2.72;;;;;;;;;;4988959;28;20111;-85
2023/04/01 11:42:57;;;;;;;4.45;2.40;;;;;;;;;;5000762;28;20046;-85
2023/04/01 11:45:36;;;;;;;4.82;2.97;;;;;;;;;;5004927;28;20056;-85
2023/04/01 11:48:20;;;;;;;5.68;3.22;;;;;;;;;;5007623;28;20069;-86
2023/04/01 11:50:50;;;;;;;6.85;3.03;;;;;;;;;;4990987;28;20197;-85
2023/04/01 11:53:17;;;;;;;5.00;3.10;;;;;;;;;;5008844;28;20162;-86
2023/04/01 11:55:43;;;;;;;4.18;2.47;;;;;;;;;;5004638;28;20528;-85
2023/04/01 11:58:20;;;;;;;3.92;2.28;;;;;;;;;;4990138;28;20164;-85
2023/04/01 12:00:58;;;;;;;5.10;2.38;;;;;;;;;;5005569;28;20051;-85
2023/04/01 12:03:43;;;;;;;3.65;2.13;;;;;;;;;;5014896;28;20069;-86
2023/04/01 12:06:30;;;;;;;4.97;2.88;;;;;;;;;;5005460;28;20038;-86
2023/04/01 12:09:04;;;;;;;5.22;2.97;;;;;;;;;;4992180;28;20039;-86
2023/04/01 12:11:38;;;;;;;4.10;2.30;;;;;;;;;;4998536;28;20121;-87
2023/04/01 12:14:10;;;;;;;4.47;2.70;;;;;;;;;;5004110;28;20038;-86
2023/04/01 12:16:45;;;;;;;3.65;2.13;;;;;;;;;;4990868;28;20053;-86
2023/04/01 12:19:14;;;;;;;4.68;2.20;;;;;;;;;;4985495;28;20500;-85
2023/04/01 12:21:40;;;;;;;4.53;2.63;;;;;;;;;;4998890;28;20046;-86
2023/04/01 12:24:45;;;;;;;5.10;3.20;;;;;;;;;;4982916;28;20042;-85
2023/04/01 12:27:17;;;;;;;4.57;2.20;;;;;;;;;;4984869;28;20054;-85
2023/04/01 12:29:43;;;;;;;3.60;2.00;;;;;;;;;;5022668;28;20050;-85
2023/04/01 12:32:20;;;;;;;4.30;2.70;;;;;;;;;;5015947;28;20058;-85
2023/04/01 12:34:51;;;;;;;4.45;2.45;;;;;;;;;;5001245;28;20088;-87
2023/04/01 12:37:21;;;;;;;4.53;2.45;;;;;;;;;;4991712;28;20042;-86
2023/04/01 12:39:56;;;;;;;4.65;2.88;;;;;;;;;;5003347;28;20046;-86
2023/04/01 12:42:38;;;;;;;4.68;2.83;;;;;;;;;;4999543;28;20042;-86
2023/04/01 12:45:12;;;;;;;4.55;2.90;;;;;;;;;;5003958;28;20058;-86
2023/04/01 12:47:57;;;;;;;5.15;3.40;;;;;;;;;;5001756;28;20117;-85
2023/04/01 12:50:42;;;;;;;5.30;3.67;;;;;;;;;;4996642;28;20050;-86
2023/04/01 12:53:17;;;;;;;3.80;2.22;;;;;;;;;;5003852;28;20046;-85
2023/04/01 12:55:44;;;;;;;4.75;2.88;;;;;;;;;;5001979;28;20115;-86
2023/04/01 12:58:29;;;;;;;5.22;3.13;;;;;;;;;;5003347;28;20038;-85
2023/04/01 13:01:01;;;;;;;4.82;3.20;;;;;;;;;;4980377;28;20042;-86
2023/04/01 13:03:33;;;;;;;4.40;2.80;;;;;;;;;;5004605;28;20038;-86
2023/04/01 13:06:09;;;;;;;4.63;3.05;;;;;;;;;;4975868;28;20070;-86
2023/04/01 13:08:49;;;;;;;4.85;2.70;;;;;;;;;;5002281;28;20058;-86
2023/04/01 13:11:25;;;;;;;6.72;4.05;;;;;;;;;;5001782;28;20106;-87
2023/04/01 13:14:05;;;;;;;4.70;2.95;;;;;;;;;;5007945;28;20046;-87
2023/04/01 13:16:37;;;;;;;8.13;3.30;;;;;;;;;;5007616;28;20043;-86
2023/04/01 13:19:18;;;;;;;5.47;4.07;;;;;;;;;;5003370;28;20041;-86
2023/04/01 13:21:44;;;;;;;6.07;3.38;;;;;;;;;;5003075;28;20480;-86
2023/04/01 13:24:29;;;;;;;5.40;3.10;;;;;;;;;;5003483;28;20061;-87
2023/04/01 13:26:58;;;;;;;6.13;3.95;;;;;;;;;;5003857;28;20413;-86
2023/04/01 13:29:39;;;;;;;3.85;2.40;;;;;;;;;;5003100;28;20038;-86
2023/04/01 13:32:17;;;;;;;5.20;3.40;;;;;;;;;;4986638;28;20054;-86
2023/04/01 13:34:43;;;;;;;4.57;3.00;;;;;;;;;;5006555;28;20045;-86
2023/04/01 13:37:20;;;;;;;6.00;4.10;;;;;;;;;;5005874;28;20047;-85
2023/04/01 13:39:46;;;;;;;11.18;8.15;;;;;;;;;;4994134;28;20141;-86
2023/04/01 13:42:15;;;;;;;6.18;3.78;;;;;;;;;;4990400;28;20042;-87
2023/04/01 13:45:02;;;;;;;5.40;3.72;;;;;;;;;;4999882;28;20034;-86
2023/04/01 13:47:40;;;;;;;4.50;2.95;;;;;;;;;;4999961;28;20038;-85
2023/04/01 13:50:25;;;;;;;5.95;3.00;;;;;;;;;;4994415;28;20133;-85
2023/04/01 13:52:51;;;;;;;5.10;3.58;;;;;;;;;;4996045;28;20038;-88
2023/04/01 13:55:31;;;;;;;5.10;3.70;;;;;;;;;;4996044;28;20038;-86
2023/04/01 13:57:57;;;;;;;5.80;3.88;;;;;;;;;;5005505;28;20484;-87
2023/04/01 14:00:38;;;;;;;5.32;4.15;;;;;;;;;;4999102;28;20101;-86
2023/04/01 14:03:23;;;;;;;6.50;4.18;;;;;;;;;;5000894;28;20046;-86
2023/04/01 14:05:55;;;;;;;5.60;4.30;;;;;;;;;;5004023;28;20043;-86
2023/04/01 14:08:21;;;;;;;5.68;4.10;;;;;;;;;;5003193;28;20058;-86
2023/04/01 14:10:56;;;;;;;5.10;3.30;;;;;;;;;;5002129;28;20066;-87
2023/04/01 14:13:27;;;;;;;5.28;3.40;;;;;;;;;;4988719;28;20469;-86
2023/04/01 14:16:12;;;;;;;4.97;2.83;;;;;;;;;;5003767;28;20477;-86
2023/04/01 14:18:59;;;;;;;4.30;2.67;;;;;;;;;;4998378;28;20074;-85
2023/04/01 14:21:31;;;;;;;4.10;2.65;;;;;;;;;;4985227;28;20056;-86
2023/04/01 14:23:57;;;;;;;5.82;3.17;;;;;;;;;;4996895;28;20056;-87
2023/04/01 14:26:32;;;;;;;4.65;3.00;;;;;;;;;;5004041;28;20343;-87
2023/04/01 14:29:08;;;;;;;4.90;3.42;;;;;;;;;;5001315;28;20076;-86
2023/04/01 14:31:54;;;;;;;4.25;2.55;;;;;;;;;;4995793;28;20496;-86
2023/04/01 14:34:30;;;;;;;5.53;3.17;;;;;;;;;;5000828;28;20034;-86
2023/04/01 14:37:12;;;;;;;4.38;2.65;;;;;;;;;;4996088;28;20133;-86
2023/04/01 14:39:58;;;;;;;3.63;2.17;;;;;;;;;;5001059;28;20062;-87
2023/04/01 14:42:35;;;;;;;4.10;2.20;;;;;;;;;;4997787;28;20057;-85
2023/04/01 14:45:20;;;;;;;3.45;1.70;;;;;;;;;;4995958;28;20385;-87
2023/04/01 14:47:53;;;;;;;4.43;1.90;;;;;;;;;;4980776;28;20046;-85
2023/04/01 14:50:24;;;;;;;3.67;1.92;;;;;;;;;;4999512;28;20129;-86
2023/04/01 14:52:58;;;;;;;5.07;2.60;;;;;;;;;;5003394;28;20125;-86
2023/04/01 14:55:39;;;;;;;5.45;3.33;;;;;;;;;;5002249;28;20050;-86
2023/04/01 14:58:10;;;;;;;4.90;3.20;;;;;;;;;;4987673;28;20047;-85
2023/04/01 15:00:48;;;;;;;4.55;2.80;;;;;;;;;;4991318;28;20050;-86
2023/04/01 15:03:33;;;;;;;5.88;3.35;;;;;;;;;;5007046;28;20054;-86
2023/04/01 15:06:18;;;;;;;4.55;2.70;;;;;;;;;;5008003;28;20046;-84